PADK/ADK METAR and TAF weather

Enter ICAO airport designator
Station Type Date Time Source
PADK METAR 2023/02/06 00:56 UTC NOAA

PADK 060056Z AUTO 36015G20KT FEW015 SCT027 SCT037 01/M03 A2931 RMK AO2 SLP926 P0001 T00111028 PWINO FZRANO $


Station Type Date Time Source
PADK Decoded METAR 2023/02/06 00:56 UTC NOAA

Adak Island, Adak Airport, AK, United States (PADK) 51-52-40N 176-38-45W 4M
Feb 05, 2023 - 07:56 PM EST / 2023.02.06 0056 UTC
Wind: from the N (360 degrees) at 17 MPH (15 KT) gusting to 23 MPH (20 KT):0
Sky conditions: partly cloudy
Precipitation last hour: 0.01 inches
Temperature: 34.0 F (1.1 C)
Windchill: 23 F (-5 C):1
Dew Point: 27.0 F (-2.8 C)
Relative Humidity: 75%
Pressure (altimeter): 29.31 in. Hg (992 hPa)
ob: PADK 060056Z AUTO 36015G20KT FEW015 SCT027 SCT037 01/M03 A2931 RMK AO2 SLP926 P0001 T00111028 PWINO FZRANO
cycle: 1

Station Type Date Time Source
PADK TAF 2007/04/07 12:54 UTC NOAA

TAF PADK 070404 33010G15KT 9999 FEW025 BKN030 OVC050 QNH2900INS T03/00Z TM01/18Z COR 1205 LAST NO
AMDS AFT 0712;

Example: see airport list